sensor_id;sensor_type;location;lat;lon;timestamp;P1;durP1;ratioP1;P2;durP2;ratioP2
38611;SDS011;24368;52.156;20.788;2023-06-22T00:02:08;21.80;;;20.10;;
38611;SDS011;24368;52.156;20.788;2023-06-22T00:07:09;22.90;;;20.90;;
38611;SDS011;24368;52.156;20.788;2023-06-22T00:12:10;22.80;;;20.90;;
38611;SDS011;24368;52.156;20.788;2023-06-22T00:17:11;22.80;;;21.00;;
38611;SDS011;24368;52.156;20.788;2023-06-22T00:22:12;21.80;;;20.00;;
38611;SDS011;24368;52.156;20.788;2023-06-22T00:27:13;24.90;;;22.80;;
38611;SDS011;24368;52.156;20.788;2023-06-22T00:32:14;23.10;;;21.30;;
38611;SDS011;24368;52.156;20.788;2023-06-22T00:37:15;21.20;;;19.60;;
38611;SDS011;24368;52.156;20.788;2023-06-22T00:42:17;21.90;;;20.10;;
38611;SDS011;24368;52.156;20.788;2023-06-22T00:47:18;21.70;;;20.00;;
38611;SDS011;24368;52.156;20.788;2023-06-22T00:52:20;21.90;;;20.20;;
38611;SDS011;24368;52.156;20.788;2023-06-22T00:57:27;21.50;;;19.90;;
38611;SDS011;24368;52.156;20.788;2023-06-22T01:02:29;23.40;;;21.50;;
38611;SDS011;24368;52.156;20.788;2023-06-22T01:07:38;23.70;;;21.80;;
38611;SDS011;24368;52.156;20.788;2023-06-22T01:12:55;25.40;;;23.40;;
38611;SDS011;24368;52.156;20.788;2023-06-22T01:18:03;24.10;;;22.20;;
38611;SDS011;24368;52.156;20.788;2023-06-22T01:23:11;23.20;;;21.40;;
38611;SDS011;24368;52.156;20.788;2023-06-22T01:28:23;22.80;;;21.00;;
38611;SDS011;24368;52.156;20.788;2023-06-22T01:33:37;23.90;;;21.90;;
38611;SDS011;24368;52.156;20.788;2023-06-22T01:43:43;23.90;;;22.00;;
38611;SDS011;24368;52.156;20.788;2023-06-22T01:48:45;25.80;;;23.70;;
38611;SDS011;24368;52.156;20.788;2023-06-22T01:53:47;25.80;;;23.60;;
38611;SDS011;24368;52.156;20.788;2023-06-22T01:58:55;26.40;;;24.20;;
38611;SDS011;24368;52.156;20.788;2023-06-22T02:04:03;23.10;;;21.10;;
38611;SDS011;24368;52.156;20.788;2023-06-22T02:09:14;24.80;;;22.80;;
38611;SDS011;24368;52.156;20.788;2023-06-22T02:14:18;26.00;;;23.80;;
38611;SDS011;24368;52.156;20.788;2023-06-22T02:19:26;27.00;;;24.80;;
38611;SDS011;24368;52.156;20.788;2023-06-22T02:24:28;26.70;;;24.50;;
38611;SDS011;24368;52.156;20.788;2023-06-22T02:29:31;27.20;;;24.80;;
38611;SDS011;24368;52.156;20.788;2023-06-22T02:34:32;28.80;;;26.20;;
38611;SDS011;24368;52.156;20.788;2023-06-22T02:39:34;29.50;;;26.90;;
38611;SDS011;24368;52.156;20.788;2023-06-22T02:44:36;29.90;;;27.30;;
38611;SDS011;24368;52.156;20.788;2023-06-22T02:49:37;30.60;;;27.60;;
38611;SDS011;24368;52.156;20.788;2023-06-22T02:54:38;33.70;;;30.90;;
38611;SDS011;24368;52.156;20.788;2023-06-22T02:59:40;32.70;;;29.90;;
38611;SDS011;24368;52.156;20.788;2023-06-22T03:04:44;35.60;;;32.50;;
38611;SDS011;24368;52.156;20.788;2023-06-22T03:09:45;35.90;;;32.30;;
38611;SDS011;24368;52.156;20.788;2023-06-22T03:14:46;34.20;;;31.20;;
38611;SDS011;24368;52.156;20.788;2023-06-22T03:19:47;35.00;;;31.80;;
38611;SDS011;24368;52.156;20.788;2023-06-22T03:24:48;34.20;;;31.30;;
38611;SDS011;24368;52.156;20.788;2023-06-22T03:29:49;33.90;;;30.90;;
38611;SDS011;24368;52.156;20.788;2023-06-22T03:34:50;32.10;;;29.40;;
38611;SDS011;24368;52.156;20.788;2023-06-22T03:39:51;33.60;;;30.30;;
38611;SDS011;24368;52.156;20.788;2023-06-22T03:44:53;32.70;;;29.70;;
38611;SDS011;24368;52.156;20.788;2023-06-22T03:49:54;32.20;;;29.40;;
38611;SDS011;24368;52.156;20.788;2023-06-22T03:54:55;33.30;;;30.40;;
38611;SDS011;24368;52.156;20.788;2023-06-22T03:59:57;32.10;;;29.30;;
38611;SDS011;24368;52.156;20.788;2023-06-22T04:04:58;31.80;;;29.00;;
38611;SDS011;24368;52.156;20.788;2023-06-22T04:10:00;29.60;;;27.00;;
38611;SDS011;24368;52.156;20.788;2023-06-22T04:15:06;27.80;;;25.30;;
38611;SDS011;24368;52.156;20.788;2023-06-22T04:20:08;29.10;;;26.50;;
38611;SDS011;24368;52.156;20.788;2023-06-22T04:25:09;29.40;;;26.70;;
38611;SDS011;24368;52.156;20.788;2023-06-22T04:36:01;23.80;;;21.80;;
38611;SDS011;24368;52.156;20.788;2023-06-22T04:41:11;24.00;;;21.90;;
38611;SDS011;24368;52.156;20.788;2023-06-22T04:46:15;21.80;;;19.70;;
38611;SDS011;24368;52.156;20.788;2023-06-22T04:51:27;23.00;;;20.90;;
38611;SDS011;24368;52.156;20.788;2023-06-22T04:56:32;23.20;;;21.00;;
38611;SDS011;24368;52.156;20.788;2023-06-22T05:01:33;22.80;;;20.50;;
38611;SDS011;24368;52.156;20.788;2023-06-22T05:06:35;23.40;;;21.30;;
38611;SDS011;24368;52.156;20.788;2023-06-22T05:11:36;23.30;;;21.20;;
38611;SDS011;24368;52.156;20.788;2023-06-22T05:16:38;21.60;;;19.80;;
38611;SDS011;24368;52.156;20.788;2023-06-22T05:21:42;22.60;;;20.50;;
38611;SDS011;24368;52.156;20.788;2023-06-22T05:26:43;22.40;;;20.40;;
38611;SDS011;24368;52.156;20.788;2023-06-22T05:31:44;23.00;;;20.60;;
38611;SDS011;24368;52.156;20.788;2023-06-22T05:36:45;20.60;;;18.80;;
38611;SDS011;24368;52.156;20.788;2023-06-22T05:41:46;22.50;;;20.40;;
38611;SDS011;24368;52.156;20.788;2023-06-22T05:46:47;21.90;;;19.80;;
38611;SDS011;24368;52.156;20.788;2023-06-22T05:51:48;21.00;;;19.00;;
38611;SDS011;24368;52.156;20.788;2023-06-22T05:56:49;19.50;;;17.60;;
38611;SDS011;24368;52.156;20.788;2023-06-22T06:01:51;18.50;;;16.80;;
38611;SDS011;24368;52.156;20.788;2023-06-22T06:06:52;19.20;;;17.40;;
38611;SDS011;24368;52.156;20.788;2023-06-22T06:11:53;19.00;;;17.30;;
38611;SDS011;24368;52.156;20.788;2023-06-22T06:16:54;18.70;;;17.20;;
38611;SDS011;24368;52.156;20.788;2023-06-22T06:21:55;18.40;;;16.80;;
38611;SDS011;24368;52.156;20.788;2023-06-22T06:26:56;19.10;;;17.40;;
38611;SDS011;24368;52.156;20.788;2023-06-22T06:31:57;17.20;;;15.60;;
38611;SDS011;24368;52.156;20.788;2023-06-22T06:36:58;17.20;;;15.70;;
38611;SDS011;24368;52.156;20.788;2023-06-22T06:42:00;17.40;;;15.60;;
38611;SDS011;24368;52.156;20.788;2023-06-22T06:47:00;15.80;;;14.30;;
38611;SDS011;24368;52.156;20.788;2023-06-22T06:52:02;15.90;;;14.50;;
38611;SDS011;24368;52.156;20.788;2023-06-22T06:57:03;15.40;;;14.10;;
38611;SDS011;24368;52.156;20.788;2023-06-22T07:02:04;12.80;;;11.60;;
38611;SDS011;24368;52.156;20.788;2023-06-22T07:07:05;13.70;;;12.40;;
38611;SDS011;24368;52.156;20.788;2023-06-22T07:12:07;13.60;;;12.30;;
38611;SDS011;24368;52.156;20.788;2023-06-22T07:17:08;14.40;;;13.10;;
38611;SDS011;24368;52.156;20.788;2023-06-22T07:22:09;13.30;;;11.50;;
38611;SDS011;24368;52.156;20.788;2023-06-22T07:27:10;12.20;;;11.00;;
38611;SDS011;24368;52.156;20.788;2023-06-22T07:32:13;10.50;;;9.60;;
38611;SDS011;24368;52.156;20.788;2023-06-22T07:37:14;11.20;;;10.10;;
38611;SDS011;24368;52.156;20.788;2023-06-22T07:42:15;9.60;;;8.70;;
38611;SDS011;24368;52.156;20.788;2023-06-22T07:47:19;8.90;;;8.20;;
38611;SDS011;24368;52.156;20.788;2023-06-22T07:52:20;9.10;;;8.20;;
38611;SDS011;24368;52.156;20.788;2023-06-22T07:57:22;11.90;;;8.30;;
38611;SDS011;24368;52.156;20.788;2023-06-22T08:02:23;7.80;;;7.20;;
38611;SDS011;24368;52.156;20.788;2023-06-22T08:07:24;7.70;;;6.90;;
38611;SDS011;24368;52.156;20.788;2023-06-22T08:12:25;6.70;;;6.00;;
38611;SDS011;24368;52.156;20.788;2023-06-22T08:17:26;8.70;;;6.20;;
38611;SDS011;24368;52.156;20.788;2023-06-22T08:22:27;6.00;;;5.40;;
38611;SDS011;24368;52.156;20.788;2023-06-22T08:27:29;7.00;;;4.70;;
38611;SDS011;24368;52.156;20.788;2023-06-22T08:32:32;5.50;;;4.90;;
38611;SDS011;24368;52.156;20.788;2023-06-22T08:37:33;4.40;;;4.00;;
38611;SDS011;24368;52.156;20.788;2023-06-22T08:42:36;4.50;;;4.00;;
38611;SDS011;24368;52.156;20.788;2023-06-22T08:47:39;4.30;;;3.80;;
38611;SDS011;24368;52.156;20.788;2023-06-22T08:52:42;4.40;;;4.00;;
38611;SDS011;24368;52.156;20.788;2023-06-22T08:57:43;4.70;;;4.00;;
38611;SDS011;24368;52.156;20.788;2023-06-22T09:02:44;5.20;;;3.30;;
38611;SDS011;24368;52.156;20.788;2023-06-22T09:07:46;3.30;;;2.70;;
38611;SDS011;24368;52.156;20.788;2023-06-22T09:12:48;3.10;;;2.90;;
38611;SDS011;24368;52.156;20.788;2023-06-22T09:17:49;4.40;;;3.00;;
38611;SDS011;24368;52.156;20.788;2023-06-22T09:22:50;4.10;;;3.30;;
38611;SDS011;24368;52.156;20.788;2023-06-22T09:27:51;3.30;;;3.10;;
38611;SDS011;24368;52.156;20.788;2023-06-22T09:32:52;5.80;;;5.20;;
38611;SDS011;24368;52.156;20.788;2023-06-22T09:37:54;3.60;;;3.00;;
38611;SDS011;24368;52.156;20.788;2023-06-22T09:42:55;4.50;;;3.10;;
38611;SDS011;24368;52.156;20.788;2023-06-22T09:47:56;3.20;;;3.00;;
38611;SDS011;24368;52.156;20.788;2023-06-22T09:52:57;5.50;;;3.10;;
38611;SDS011;24368;52.156;20.788;2023-06-22T09:57:58;4.80;;;2.90;;
38611;SDS011;24368;52.156;20.788;2023-06-22T10:02:59;3.80;;;3.50;;
38611;SDS011;24368;52.156;20.788;2023-06-22T10:08:00;4.50;;;4.00;;
38611;SDS011;24368;52.156;20.788;2023-06-22T10:13:08;4.80;;;3.80;;
38611;SDS011;24368;52.156;20.788;2023-06-22T10:18:12;4.50;;;4.10;;
38611;SDS011;24368;52.156;20.788;2023-06-22T10:23:13;4.50;;;4.00;;
38611;SDS011;24368;52.156;20.788;2023-06-22T10:28:15;4.40;;;4.00;;
38611;SDS011;24368;52.156;20.788;2023-06-22T10:33:16;4.30;;;3.80;;
38611;SDS011;24368;52.156;20.788;2023-06-22T10:38:18;6.10;;;4.80;;
38611;SDS011;24368;52.156;20.788;2023-06-22T10:43:19;4.40;;;4.10;;
38611;SDS011;24368;52.156;20.788;2023-06-22T10:48:20;5.20;;;4.20;;
38611;SDS011;24368;52.156;20.788;2023-06-22T10:53:21;6.30;;;4.80;;
38611;SDS011;24368;52.156;20.788;2023-06-22T10:58:22;5.90;;;4.70;;
38611;SDS011;24368;52.156;20.788;2023-06-22T11:03:23;5.60;;;4.90;;
38611;SDS011;24368;52.156;20.788;2023-06-22T11:08:24;5.80;;;4.90;;
38611;SDS011;24368;52.156;20.788;2023-06-22T11:13:25;5.30;;;4.80;;
38611;SDS011;24368;52.156;20.788;2023-06-22T11:18:27;5.10;;;4.70;;
38611;SDS011;24368;52.156;20.788;2023-06-22T11:23:28;5.50;;;4.80;;
38611;SDS011;24368;52.156;20.788;2023-06-22T11:28:29;4.80;;;4.40;;
38611;SDS011;24368;52.156;20.788;2023-06-22T11:33:30;4.90;;;4.30;;
38611;SDS011;24368;52.156;20.788;2023-06-22T11:38:31;4.60;;;4.20;;
38611;SDS011;24368;52.156;20.788;2023-06-22T11:43:32;6.80;;;4.60;;
38611;SDS011;24368;52.156;20.788;2023-06-22T11:48:34;4.60;;;4.10;;
38611;SDS011;24368;52.156;20.788;2023-06-22T11:53:35;4.00;;;3.60;;
38611;SDS011;24368;52.156;20.788;2023-06-22T11:58:36;4.50;;;4.20;;
38611;SDS011;24368;52.156;20.788;2023-06-22T12:03:37;4.30;;;3.80;;
38611;SDS011;24368;52.156;20.788;2023-06-22T12:08:38;4.20;;;3.80;;
38611;SDS011;24368;52.156;20.788;2023-06-22T12:13:39;4.60;;;3.90;;
38611;SDS011;24368;52.156;20.788;2023-06-22T12:18:41;4.60;;;4.00;;
38611;SDS011;24368;52.156;20.788;2023-06-22T12:23:42;4.50;;;3.90;;
38611;SDS011;24368;52.156;20.788;2023-06-22T12:28:43;4.40;;;3.80;;
38611;SDS011;24368;52.156;20.788;2023-06-22T12:33:44;4.10;;;3.80;;
38611;SDS011;24368;52.156;20.788;2023-06-22T12:38:45;4.10;;;3.80;;
38611;SDS011;24368;52.156;20.788;2023-06-22T12:43:46;4.40;;;4.00;;
38611;SDS011;24368;52.156;20.788;2023-06-22T12:48:47;4.40;;;4.00;;
38611;SDS011;24368;52.156;20.788;2023-06-22T12:53:49;4.40;;;4.00;;
38611;SDS011;24368;52.156;20.788;2023-06-22T12:58:50;3.80;;;3.50;;
38611;SDS011;24368;52.156;20.788;2023-06-22T13:03:51;4.20;;;3.80;;
38611;SDS011;24368;52.156;20.788;2023-06-22T13:08:52;4.70;;;4.10;;
38611;SDS011;24368;52.156;20.788;2023-06-22T13:13:53;5.80;;;3.60;;
38611;SDS011;24368;52.156;20.788;2023-06-22T13:18:54;4.00;;;3.70;;
38611;SDS011;24368;52.156;20.788;2023-06-22T13:23:55;3.50;;;3.20;;
38611;SDS011;24368;52.156;20.788;2023-06-22T13:28:56;4.50;;;3.80;;
38611;SDS011;24368;52.156;20.788;2023-06-22T13:33:58;3.20;;;2.90;;
38611;SDS011;24368;52.156;20.788;2023-06-22T13:38:59;3.90;;;3.10;;
38611;SDS011;24368;52.156;20.788;2023-06-22T13:44:00;4.20;;;3.80;;
38611;SDS011;24368;52.156;20.788;2023-06-22T13:49:01;3.40;;;3.10;;
38611;SDS011;24368;52.156;20.788;2023-06-22T13:54:02;3.80;;;3.50;;
38611;SDS011;24368;52.156;20.788;2023-06-22T13:59:03;5.80;;;3.70;;
38611;SDS011;24368;52.156;20.788;2023-06-22T14:04:04;3.40;;;3.20;;
38611;SDS011;24368;52.156;20.788;2023-06-22T14:09:06;3.00;;;2.80;;
38611;SDS011;24368;52.156;20.788;2023-06-22T14:14:07;4.10;;;3.40;;
38611;SDS011;24368;52.156;20.788;2023-06-22T14:19:09;4.60;;;3.70;;
38611;SDS011;24368;52.156;20.788;2023-06-22T14:24:10;4.10;;;3.80;;
38611;SDS011;24368;52.156;20.788;2023-06-22T14:29:11;4.10;;;3.80;;
38611;SDS011;24368;52.156;20.788;2023-06-22T14:34:12;4.50;;;4.10;;
38611;SDS011;24368;52.156;20.788;2023-06-22T14:39:13;5.40;;;4.90;;
38611;SDS011;24368;52.156;20.788;2023-06-22T14:44:15;5.00;;;4.50;;
38611;SDS011;24368;52.156;20.788;2023-06-22T14:49:16;4.90;;;4.50;;
38611;SDS011;24368;52.156;20.788;2023-06-22T14:54:17;5.50;;;4.90;;
38611;SDS011;24368;52.156;20.788;2023-06-22T14:59:18;4.80;;;4.40;;
38611;SDS011;24368;52.156;20.788;2023-06-22T15:04:19;5.10;;;4.70;;
38611;SDS011;24368;52.156;20.788;2023-06-22T15:09:20;4.90;;;4.50;;
38611;SDS011;24368;52.156;20.788;2023-06-22T15:14:21;4.40;;;4.00;;
38611;SDS011;24368;52.156;20.788;2023-06-22T15:19:22;5.50;;;5.00;;
38611;SDS011;24368;52.156;20.788;2023-06-22T15:24:24;4.90;;;4.50;;
38611;SDS011;24368;52.156;20.788;2023-06-22T15:29:25;5.20;;;4.70;;
38611;SDS011;24368;52.156;20.788;2023-06-22T15:34:27;6.20;;;5.70;;
38611;SDS011;24368;52.156;20.788;2023-06-22T15:39:28;5.20;;;4.80;;
38611;SDS011;24368;52.156;20.788;2023-06-22T15:44:29;4.90;;;4.50;;
38611;SDS011;24368;52.156;20.788;2023-06-22T15:49:30;6.90;;;6.40;;
38611;SDS011;24368;52.156;20.788;2023-06-22T15:54:31;5.10;;;4.70;;
38611;SDS011;24368;52.156;20.788;2023-06-22T15:59:32;5.10;;;4.60;;
38611;SDS011;24368;52.156;20.788;2023-06-22T16:04:34;6.10;;;5.00;;
38611;SDS011;24368;52.156;20.788;2023-06-22T16:09:36;7.30;;;6.60;;
38611;SDS011;24368;52.156;20.788;2023-06-22T16:14:38;7.80;;;7.10;;
38611;SDS011;24368;52.156;20.788;2023-06-22T16:19:41;6.80;;;6.10;;
38611;SDS011;24368;52.156;20.788;2023-06-22T16:24:42;8.20;;;7.30;;
38611;SDS011;24368;52.156;20.788;2023-06-22T16:29:43;6.60;;;5.00;;
38611;SDS011;24368;52.156;20.788;2023-06-22T16:34:44;5.80;;;5.30;;
38611;SDS011;24368;52.156;20.788;2023-06-22T16:39:48;6.30;;;5.10;;
38611;SDS011;24368;52.156;20.788;2023-06-22T16:44:49;6.00;;;5.50;;
38611;SDS011;24368;52.156;20.788;2023-06-22T16:49:50;5.90;;;5.30;;
38611;SDS011;24368;52.156;20.788;2023-06-22T16:54:54;4.10;;;3.70;;
38611;SDS011;24368;52.156;20.788;2023-06-22T16:59:56;4.60;;;4.30;;
38611;SDS011;24368;52.156;20.788;2023-06-22T17:04:57;4.50;;;4.10;;
38611;SDS011;24368;52.156;20.788;2023-06-22T17:09:59;5.50;;;5.00;;
38611;SDS011;24368;52.156;20.788;2023-06-22T17:15:01;3.60;;;3.40;;
38611;SDS011;24368;52.156;20.788;2023-06-22T17:20:03;5.00;;;4.60;;
38611;SDS011;24368;52.156;20.788;2023-06-22T17:25:05;6.60;;;6.00;;
38611;SDS011;24368;52.156;20.788;2023-06-22T17:30:09;5.90;;;4.30;;
38611;SDS011;24368;52.156;20.788;2023-06-22T17:35:18;4.90;;;4.50;;
38611;SDS011;24368;52.156;20.788;2023-06-22T17:40:20;4.50;;;4.10;;
38611;SDS011;24368;52.156;20.788;2023-06-22T17:45:23;4.70;;;4.10;;
38611;SDS011;24368;52.156;20.788;2023-06-22T17:50:25;5.70;;;5.20;;
38611;SDS011;24368;52.156;20.788;2023-06-22T17:55:26;4.90;;;4.50;;
38611;SDS011;24368;52.156;20.788;2023-06-22T18:00:27;4.80;;;4.40;;
38611;SDS011;24368;52.156;20.788;2023-06-22T18:05:30;5.20;;;4.70;;
38611;SDS011;24368;52.156;20.788;2023-06-22T18:10:35;6.40;;;4.90;;
38611;SDS011;24368;52.156;20.788;2023-06-22T18:15:38;8.50;;;7.40;;
38611;SDS011;24368;52.156;20.788;2023-06-22T18:20:40;5.30;;;4.70;;
38611;SDS011;24368;52.156;20.788;2023-06-22T18:25:42;5.10;;;4.00;;
38611;SDS011;24368;52.156;20.788;2023-06-22T18:30:45;4.50;;;4.10;;
38611;SDS011;24368;52.156;20.788;2023-06-22T18:35:48;4.20;;;3.80;;
38611;SDS011;24368;52.156;20.788;2023-06-22T18:40:52;5.80;;;4.90;;
38611;SDS011;24368;52.156;20.788;2023-06-22T18:45:53;4.60;;;4.20;;
38611;SDS011;24368;52.156;20.788;2023-06-22T18:50:55;4.40;;;4.00;;
38611;SDS011;24368;52.156;20.788;2023-06-22T18:56:11;11.70;;;4.40;;
38611;SDS011;24368;52.156;20.788;2023-06-22T19:01:17;4.90;;;4.50;;
38611;SDS011;24368;52.156;20.788;2023-06-22T19:11:51;9.00;;;4.50;;
38611;SDS011;24368;52.156;20.788;2023-06-22T19:17:22;6.80;;;5.80;;
38611;SDS011;24368;52.156;20.788;2023-06-22T19:22:23;6.50;;;4.70;;
38611;SDS011;24368;52.156;20.788;2023-06-22T19:27:57;5.30;;;4.90;;
38611;SDS011;24368;52.156;20.788;2023-06-22T19:32:59;5.40;;;4.90;;
38611;SDS011;24368;52.156;20.788;2023-06-22T19:38:00;6.30;;;5.20;;
38611;SDS011;24368;52.156;20.788;2023-06-22T19:43:01;6.40;;;5.90;;
38611;SDS011;24368;52.156;20.788;2023-06-22T19:48:02;7.60;;;6.20;;
38611;SDS011;24368;52.156;20.788;2023-06-22T19:53:03;6.80;;;6.20;;
38611;SDS011;24368;52.156;20.788;2023-06-22T19:58:10;10.10;;;6.50;;
38611;SDS011;24368;52.156;20.788;2023-06-22T20:03:16;10.00;;;6.20;;
38611;SDS011;24368;52.156;20.788;2023-06-22T20:08:19;7.50;;;6.80;;
38611;SDS011;24368;52.156;20.788;2023-06-22T20:13:21;7.60;;;6.80;;
38611;SDS011;24368;52.156;20.788;2023-06-22T20:18:22;7.30;;;6.60;;
38611;SDS011;24368;52.156;20.788;2023-06-22T20:23:23;6.80;;;6.20;;
38611;SDS011;24368;52.156;20.788;2023-06-22T20:33:43;7.00;;;6.20;;
38611;SDS011;24368;52.156;20.788;2023-06-22T20:38:44;7.90;;;6.30;;
38611;SDS011;24368;52.156;20.788;2023-06-22T20:43:51;7.80;;;7.10;;
38611;SDS011;24368;52.156;20.788;2023-06-22T20:48:54;6.70;;;6.00;;
38611;SDS011;24368;52.156;20.788;2023-06-22T20:53:55;6.20;;;5.70;;
38611;SDS011;24368;52.156;20.788;2023-06-22T20:58:56;7.70;;;6.70;;
38611;SDS011;24368;52.156;20.788;2023-06-22T21:03:57;8.20;;;7.40;;
38611;SDS011;24368;52.156;20.788;2023-06-22T21:08:58;10.00;;;7.20;;
38611;SDS011;24368;52.156;20.788;2023-06-22T21:13:59;9.50;;;7.80;;
38611;SDS011;24368;52.156;20.788;2023-06-22T21:19:00;8.20;;;7.40;;
38611;SDS011;24368;52.156;20.788;2023-06-22T21:24:02;8.70;;;7.90;;
38611;SDS011;24368;52.156;20.788;2023-06-22T21:29:03;8.20;;;7.40;;
38611;SDS011;24368;52.156;20.788;2023-06-22T21:34:04;8.60;;;7.90;;
38611;SDS011;24368;52.156;20.788;2023-06-22T21:39:05;9.10;;;7.70;;
38611;SDS011;24368;52.156;20.788;2023-06-22T21:44:06;9.60;;;8.70;;
38611;SDS011;24368;52.156;20.788;2023-06-22T21:49:07;8.80;;;8.00;;
38611;SDS011;24368;52.156;20.788;2023-06-22T21:54:08;9.60;;;8.40;;
38611;SDS011;24368;52.156;20.788;2023-06-22T21:59:10;9.80;;;8.90;;
38611;SDS011;24368;52.156;20.788;2023-06-22T22:04:11;9.10;;;8.20;;
38611;SDS011;24368;52.156;20.788;2023-06-22T22:09:12;9.20;;;8.30;;
38611;SDS011;24368;52.156;20.788;2023-06-22T22:14:14;8.80;;;8.00;;
38611;SDS011;24368;52.156;20.788;2023-06-22T22:19:15;8.60;;;7.80;;
38611;SDS011;24368;52.156;20.788;2023-06-22T22:24:16;8.60;;;7.80;;
38611;SDS011;24368;52.156;20.788;2023-06-22T22:29:17;8.40;;;7.50;;
38611;SDS011;24368;52.156;20.788;2023-06-22T22:34:18;8.30;;;7.70;;
38611;SDS011;24368;52.156;20.788;2023-06-22T22:39:35;8.50;;;7.80;;
38611;SDS011;24368;52.156;20.788;2023-06-22T22:44:39;9.00;;;8.20;;
38611;SDS011;24368;52.156;20.788;2023-06-22T22:49:40;8.10;;;7.40;;
38611;SDS011;24368;52.156;20.788;2023-06-22T22:54:42;8.50;;;7.70;;
38611;SDS011;24368;52.156;20.788;2023-06-22T22:59:43;8.20;;;7.40;;
38611;SDS011;24368;52.156;20.788;2023-06-22T23:04:45;8.80;;;7.80;;
38611;SDS011;24368;52.156;20.788;2023-06-22T23:09:55;8.40;;;7.60;;
38611;SDS011;24368;52.156;20.788;2023-06-22T23:14:57;8.80;;;7.90;;
38611;SDS011;24368;52.156;20.788;2023-06-22T23:19:58;8.40;;;7.30;;
38611;SDS011;24368;52.156;20.788;2023-06-22T23:24:59;8.20;;;7.50;;
38611;SDS011;24368;52.156;20.788;2023-06-22T23:30:00;9.80;;;8.90;;
38611;SDS011;24368;52.156;20.788;2023-06-22T23:35:04;8.90;;;8.10;;
38611;SDS011;24368;52.156;20.788;2023-06-22T23:40:12;8.10;;;7.40;;
38611;SDS011;24368;52.156;20.788;2023-06-22T23:45:17;8.40;;;7.20;;
38611;SDS011;24368;52.156;20.788;2023-06-22T23:50:20;7.60;;;6.90;;
38611;SDS011;24368;52.156;20.788;2023-06-22T23:55:21;9.20;;;7.40;;
